sensor_id;sensor_type;location;lat;lon;timestamp;pressure;altitude;pressure_sealevel;temperature;humidity
15489;BME280;7846;48.830;9.116;2022-08-04T00:00:13;97622.81;;;28.30;45.83
15489;BME280;7846;48.830;9.116;2022-08-04T00:02:58;97625.78;;;28.29;45.92
15489;BME280;7846;48.830;9.116;2022-08-04T00:05:51;97622.88;;;28.15;46.24
15489;BME280;7846;48.830;9.116;2022-08-04T00:08:25;97616.34;;;28.21;45.85
15489;BME280;7846;48.830;9.116;2022-08-04T00:10:57;97618.84;;;28.02;46.06
15489;BME280;7846;48.830;9.116;2022-08-04T00:13:28;97621.50;;;28.12;45.81
15489;BME280;7846;48.830;9.116;2022-08-04T00:16:03;97620.16;;;28.15;45.71
15489;BME280;7846;48.830;9.116;2022-08-04T00:18:36;97622.59;;;28.16;45.28
15489;BME280;7846;48.830;9.116;2022-08-04T00:21:06;97626.94;;;28.12;45.37
15489;BME280;7846;48.830;9.116;2022-08-04T00:23:36;97624.22;;;28.12;45.60
15489;BME280;7846;48.830;9.116;2022-08-04T00:26:03;97622.34;;;28.08;45.58
15489;BME280;7846;48.830;9.116;2022-08-04T00:28:28;97625.84;;;28.08;46.02
15489;BME280;7846;48.830;9.116;2022-08-04T00:30:54;97616.41;;;28.01;46.07
15489;BME280;7846;48.830;9.116;2022-08-04T00:33:21;97624.25;;;28.02;45.77
15489;BME280;7846;48.830;9.116;2022-08-04T00:35:48;97624.25;;;28.07;45.55
15489;BME280;7846;48.830;9.116;2022-08-04T00:38:16;97628.03;;;28.01;45.55
15489;BME280;7846;48.830;9.116;2022-08-04T00:47:09;97615.66;;;27.74;46.79
15489;BME280;7846;48.830;9.116;2022-08-04T01:01:02;97627.28;;;27.44;48.18
15489;BME280;7846;48.830;9.116;2022-08-04T01:03:52;97622.94;;;27.43;47.70
15489;BME280;7846;48.830;9.116;2022-08-04T01:06:36;97622.41;;;27.41;48.11
15489;BME280;7846;48.830;9.116;2022-08-04T01:10:19;97618.34;;;27.39;47.90
15489;BME280;7846;48.830;9.116;2022-08-04T01:12:50;97619.44;;;27.12;48.81
15489;BME280;7846;48.830;9.116;2022-08-04T01:16:04;97615.41;;;27.15;48.60
15489;BME280;7846;48.830;9.116;2022-08-04T01:18:45;97618.03;;;27.05;48.97
15489;BME280;7846;48.830;9.116;2022-08-04T01:26:47;97611.25;;;26.92;49.24
15489;BME280;7846;48.830;9.116;2022-08-04T01:29:15;97615.03;;;26.81;49.71
15489;BME280;7846;48.830;9.116;2022-08-04T01:34:19;97617.16;;;26.68;49.86
15489;BME280;7846;48.830;9.116;2022-08-04T01:36:57;97615.84;;;26.81;49.57
15489;BME280;7846;48.830;9.116;2022-08-04T01:39:30;97608.81;;;26.80;49.88
15489;BME280;7846;48.830;9.116;2022-08-04T01:42:07;97609.34;;;26.72;50.08
15489;BME280;7846;48.830;9.116;2022-08-04T01:44:35;97610.16;;;26.67;50.31
15489;BME280;7846;48.830;9.116;2022-08-04T01:47:02;97611.19;;;26.61;50.40
15489;BME280;7846;48.830;9.116;2022-08-04T01:49:29;97611.44;;;26.54;50.54
15489;BME280;7846;48.830;9.116;2022-08-04T01:51:55;97607.69;;;26.61;50.02
15489;BME280;7846;48.830;9.116;2022-08-04T01:54:21;97610.41;;;26.61;50.06
15489;BME280;7846;48.830;9.116;2022-08-04T01:56:52;97615.53;;;26.67;49.98
15489;BME280;7846;48.830;9.116;2022-08-04T01:59:19;97611.22;;;26.66;49.80
15489;BME280;7846;48.830;9.116;2022-08-04T02:01:46;97606.63;;;26.67;49.50
15489;BME280;7846;48.830;9.116;2022-08-04T02:04:13;97609.59;;;26.65;49.59
15489;BME280;7846;48.830;9.116;2022-08-04T02:12:03;97612.00;;;26.62;49.93
15489;BME280;7846;48.830;9.116;2022-08-04T02:14:55;97611.75;;;26.63;50.00
15489;BME280;7846;48.830;9.116;2022-08-04T02:17:28;97612.00;;;26.62;50.13
15489;BME280;7846;48.830;9.116;2022-08-04T02:20:02;97603.91;;;26.51;50.33
15489;BME280;7846;48.830;9.116;2022-08-04T02:22:31;97605.78;;;26.56;50.36
15489;BME280;7846;48.830;9.116;2022-08-04T02:25:04;97595.44;;;26.43;50.74
15489;BME280;7846;48.830;9.116;2022-08-04T02:27:39;97604.16;;;26.50;50.39
15489;BME280;7846;48.830;9.116;2022-08-04T02:30:10;97595.69;;;26.36;50.64
15489;BME280;7846;48.830;9.116;2022-08-04T02:32:36;97592.75;;;26.38;50.76
15489;BME280;7846;48.830;9.116;2022-08-04T02:35:13;97599.75;;;26.34;50.98
15489;BME280;7846;48.830;9.116;2022-08-04T02:37:46;97596.50;;;26.31;51.20
15489;BME280;7846;48.830;9.116;2022-08-04T02:40:18;97598.09;;;26.27;51.49
15489;BME280;7846;48.830;9.116;2022-08-04T02:42:44;97599.72;;;26.28;50.85
15489;BME280;7846;48.830;9.116;2022-08-04T02:45:11;97591.91;;;26.27;50.99
15489;BME280;7846;48.830;9.116;2022-08-04T02:47:36;97595.13;;;26.24;51.13
15489;BME280;7846;48.830;9.116;2022-08-04T02:50:04;97597.00;;;26.23;50.96
15489;BME280;7846;48.830;9.116;2022-08-04T02:52:30;97597.28;;;26.22;50.86
15489;BME280;7846;48.830;9.116;2022-08-04T02:54:58;97598.91;;;26.28;50.83
15489;BME280;7846;48.830;9.116;2022-08-04T02:57:29;97588.69;;;26.30;50.68
15489;BME280;7846;48.830;9.116;2022-08-04T03:00:10;97588.13;;;26.28;50.79
15489;BME280;7846;48.830;9.116;2022-08-04T03:05:38;97597.00;;;26.23;50.64
15489;BME280;7846;48.830;9.116;2022-08-04T03:11:29;97592.13;;;26.20;50.76
15489;BME280;7846;48.830;9.116;2022-08-04T03:14:42;97588.63;;;26.20;50.46
15489;BME280;7846;48.830;9.116;2022-08-04T03:20:25;97589.09;;;26.06;51.40
15489;BME280;7846;48.830;9.116;2022-08-04T03:23:21;97587.75;;;26.04;51.43
15489;BME280;7846;48.830;9.116;2022-08-04T03:28:49;97603.66;;;26.00;51.79
15489;BME280;7846;48.830;9.116;2022-08-04T03:36:54;97609.78;;;25.91;51.89
15489;BME280;7846;48.830;9.116;2022-08-04T03:45:15;97601.84;;;25.74;52.49
15489;BME280;7846;48.830;9.116;2022-08-04T03:48:08;97604.00;;;25.72;52.45
15489;BME280;7846;48.830;9.116;2022-08-04T03:53:25;97600.38;;;25.56;52.80
15489;BME280;7846;48.830;9.116;2022-08-04T04:01:58;97597.03;;;25.44;53.19
15489;BME280;7846;48.830;9.116;2022-08-04T04:04:39;97597.41;;;25.57;52.62
15489;BME280;7846;48.830;9.116;2022-08-04T04:10:10;97593.25;;;25.40;52.78
15489;BME280;7846;48.830;9.116;2022-08-04T04:12:53;97597.69;;;25.56;53.18
15489;BME280;7846;48.830;9.116;2022-08-04T04:18:31;97590.69;;;25.55;53.31
15489;BME280;7846;48.830;9.116;2022-08-04T04:26:37;97598.47;;;25.51;53.75
15489;BME280;7846;48.830;9.116;2022-08-04T04:35:41;97601.81;;;25.69;53.41
15489;BME280;7846;48.830;9.116;2022-08-04T04:38:43;97596.13;;;25.65;53.58
15489;BME280;7846;48.830;9.116;2022-08-04T04:41:35;97602.19;;;25.82;53.35
15489;BME280;7846;48.830;9.116;2022-08-04T04:44:24;97596.88;;;25.93;52.68
15489;BME280;7846;48.830;9.116;2022-08-04T04:47:08;97598.19;;;25.90;52.64
15489;BME280;7846;48.830;9.116;2022-08-04T04:49:45;97598.25;;;26.00;52.77
15489;BME280;7846;48.830;9.116;2022-08-04T04:52:44;97610.22;;;26.15;51.76
15489;BME280;7846;48.830;9.116;2022-08-04T04:55:20;97612.44;;;26.33;51.30
15489;BME280;7846;48.830;9.116;2022-08-04T04:57:49;97608.66;;;26.39;51.68
15489;BME280;7846;48.830;9.116;2022-08-04T05:00:16;97612.47;;;26.43;51.67
15489;BME280;7846;48.830;9.116;2022-08-04T05:06:06;97611.47;;;26.60;50.96
15489;BME280;7846;48.830;9.116;2022-08-04T05:08:59;97619.63;;;26.75;50.73
15489;BME280;7846;48.830;9.116;2022-08-04T05:11:48;97615.56;;;26.88;50.68
15489;BME280;7846;48.830;9.116;2022-08-04T05:14:31;97617.22;;;26.99;50.44
15489;BME280;7846;48.830;9.116;2022-08-04T05:17:14;97615.13;;;27.11;50.03
15489;BME280;7846;48.830;9.116;2022-08-04T05:20:19;97622.41;;;27.21;49.92
15489;BME280;7846;48.830;9.116;2022-08-04T05:22:58;97621.59;;;27.36;49.90
15489;BME280;7846;48.830;9.116;2022-08-04T05:25:38;97629.44;;;27.42;49.52
15489;BME280;7846;48.830;9.116;2022-08-04T05:28:13;97626.19;;;27.61;49.27
15489;BME280;7846;48.830;9.116;2022-08-04T05:30:42;97617.78;;;27.62;49.23
15489;BME280;7846;48.830;9.116;2022-08-04T05:33:14;97621.28;;;27.73;48.89
15489;BME280;7846;48.830;9.116;2022-08-04T05:35:54;97627.25;;;27.90;48.45
15489;BME280;7846;48.830;9.116;2022-08-04T05:38:28;97622.66;;;27.81;48.70
15489;BME280;7846;48.830;9.116;2022-08-04T05:40:55;97625.59;;;27.99;48.53
15489;BME280;7846;48.830;9.116;2022-08-04T05:43:22;97621.88;;;27.85;48.78
15489;BME280;7846;48.830;9.116;2022-08-04T05:45:51;97628.00;;;28.16;48.27
15489;BME280;7846;48.830;9.116;2022-08-04T05:48:17;97624.00;;;28.04;48.40
15489;BME280;7846;48.830;9.116;2022-08-04T05:50:45;97629.59;;;28.28;48.09
15489;BME280;7846;48.830;9.116;2022-08-04T05:53:12;97624.34;;;28.57;47.57
15489;BME280;7846;48.830;9.116;2022-08-04T05:55:39;97626.91;;;28.82;46.75
15489;BME280;7846;48.830;9.116;2022-08-04T05:58:05;97631.00;;;28.80;46.87
15489;BME280;7846;48.830;9.116;2022-08-04T06:00:33;97625.16;;;29.07;46.58
15489;BME280;7846;48.830;9.116;2022-08-04T06:03:02;97638.16;;;29.10;46.56
15489;BME280;7846;48.830;9.116;2022-08-04T06:05:28;97628.22;;;29.34;45.62
15489;BME280;7846;48.830;9.116;2022-08-04T06:07:53;97627.22;;;29.54;45.13
15489;BME280;7846;48.830;9.116;2022-08-04T06:10:20;97628.22;;;29.69;44.46
15489;BME280;7846;48.830;9.116;2022-08-04T06:12:57;97636.50;;;29.82;45.29
15489;BME280;7846;48.830;9.116;2022-08-04T06:15:26;97630.28;;;29.77;45.01
15489;BME280;7846;48.830;9.116;2022-08-04T06:18:00;97627.28;;;30.07;44.09
15489;BME280;7846;48.830;9.116;2022-08-04T06:20:29;97630.34;;;30.25;43.68
15489;BME280;7846;48.830;9.116;2022-08-04T06:23:01;97627.97;;;30.42;43.00
15489;BME280;7846;48.830;9.116;2022-08-04T06:25:31;97622.63;;;30.37;43.51
15489;BME280;7846;48.830;9.116;2022-08-04T06:27:57;97633.13;;;30.44;43.56
15489;BME280;7846;48.830;9.116;2022-08-04T06:30:25;97633.56;;;30.75;42.68
15489;BME280;7846;48.830;9.116;2022-08-04T06:32:53;97628.94;;;30.94;42.68
15489;BME280;7846;48.830;9.116;2022-08-04T06:35:24;97632.78;;;30.93;41.86
15489;BME280;7846;48.830;9.116;2022-08-04T06:37:52;97633.63;;;30.89;42.51
15489;BME280;7846;48.830;9.116;2022-08-04T06:40:22;97640.63;;;31.14;42.00
15489;BME280;7846;48.830;9.116;2022-08-04T06:42:48;97641.16;;;31.35;41.93
15489;BME280;7846;48.830;9.116;2022-08-04T06:45:14;97639.53;;;31.33;42.04
15489;BME280;7846;48.830;9.116;2022-08-04T06:47:41;97637.91;;;31.32;41.40
15489;BME280;7846;48.830;9.116;2022-08-04T06:50:08;97640.53;;;31.70;40.70
15489;BME280;7846;48.830;9.116;2022-08-04T06:52:36;97647.47;;;31.95;40.37
15489;BME280;7846;48.830;9.116;2022-08-04T06:55:05;97643.84;;;32.00;40.39
15489;BME280;7846;48.830;9.116;2022-08-04T06:57:33;97645.47;;;32.01;40.33
15489;BME280;7846;48.830;9.116;2022-08-04T07:00:05;97633.16;;;32.03;40.02
15489;BME280;7846;48.830;9.116;2022-08-04T07:02:41;97634.16;;;31.94;40.07
15489;BME280;7846;48.830;9.116;2022-08-04T07:05:09;97645.41;;;32.47;39.32
15489;BME280;7846;48.830;9.116;2022-08-04T07:07:35;97637.63;;;32.41;39.27
15489;BME280;7846;48.830;9.116;2022-08-04T07:10:01;97647.66;;;32.82;38.92
15489;BME280;7846;48.830;9.116;2022-08-04T07:12:27;97640.47;;;32.99;38.43
15489;BME280;7846;48.830;9.116;2022-08-04T07:14:54;97638.78;;;32.90;38.98
15489;BME280;7846;48.830;9.116;2022-08-04T07:17:20;97639.72;;;33.08;38.65
15489;BME280;7846;48.830;9.116;2022-08-04T07:19:47;97643.16;;;33.13;38.38
15489;BME280;7846;48.830;9.116;2022-08-04T07:22:14;97640.88;;;33.29;38.04
15489;BME280;7846;48.830;9.116;2022-08-04T07:24:41;97646.63;;;33.64;37.75
15489;BME280;7846;48.830;9.116;2022-08-04T07:27:07;97636.28;;;33.83;36.30
15489;BME280;7846;48.830;9.116;2022-08-04T07:29:34;97635.47;;;34.14;36.20
15489;BME280;7846;48.830;9.116;2022-08-04T07:32:00;97629.63;;;34.38;35.73
15489;BME280;7846;48.830;9.116;2022-08-04T07:34:28;97632.75;;;34.62;34.79
15489;BME280;7846;48.830;9.116;2022-08-04T07:36:54;97638.63;;;34.47;35.20
15489;BME280;7846;48.830;9.116;2022-08-04T07:39:30;97632.47;;;34.90;35.10
15489;BME280;7846;48.830;9.116;2022-08-04T07:42:00;97631.19;;;34.96;35.34
15489;BME280;7846;48.830;9.116;2022-08-04T07:44:29;97624.59;;;34.97;35.24
15489;BME280;7846;48.830;9.116;2022-08-04T07:46:55;97628.13;;;34.98;34.88
15489;BME280;7846;48.830;9.116;2022-08-04T07:49:23;97621.38;;;35.04;34.24
15489;BME280;7846;48.830;9.116;2022-08-04T07:51:51;97621.88;;;35.06;34.26
15489;BME280;7846;48.830;9.116;2022-08-04T07:54:17;97623.78;;;35.23;34.38
15489;BME280;7846;48.830;9.116;2022-08-04T07:56:44;97620.25;;;35.57;33.60
15489;BME280;7846;48.830;9.116;2022-08-04T07:59:10;97617.75;;;35.90;33.04
15489;BME280;7846;48.830;9.116;2022-08-04T08:01:37;97622.16;;;36.21;32.88
15489;BME280;7846;48.830;9.116;2022-08-04T08:04:04;97618.97;;;36.10;32.81
15489;BME280;7846;48.830;9.116;2022-08-04T08:06:35;97617.50;;;35.39;34.05
15489;BME280;7846;48.830;9.116;2022-08-04T08:09:14;97617.00;;;35.37;33.42
15489;BME280;7846;48.830;9.116;2022-08-04T08:11:42;97604.31;;;35.50;33.60
15489;BME280;7846;48.830;9.116;2022-08-04T08:14:08;97614.91;;;36.16;33.28
15489;BME280;7846;48.830;9.116;2022-08-04T08:16:35;97615.94;;;36.32;33.05
15489;BME280;7846;48.830;9.116;2022-08-04T08:19:02;97614.94;;;36.07;33.03
15489;BME280;7846;48.830;9.116;2022-08-04T08:21:27;97617.69;;;36.37;32.03
15489;BME280;7846;48.830;9.116;2022-08-04T08:23:53;97610.38;;;36.79;31.54
15489;BME280;7846;48.830;9.116;2022-08-04T08:26:19;97610.84;;;37.02;31.66
15489;BME280;7846;48.830;9.116;2022-08-04T08:28:46;97609.06;;;35.79;32.15
15489;BME280;7846;48.830;9.116;2022-08-04T08:31:11;97615.91;;;36.41;33.06
15489;BME280;7846;48.830;9.116;2022-08-04T08:33:37;97605.53;;;36.76;31.65
15489;BME280;7846;48.830;9.116;2022-08-04T08:36:10;97608.25;;;37.06;31.73
15489;BME280;7846;48.830;9.116;2022-08-04T08:41:42;97611.75;;;36.35;30.87
15489;BME280;7846;48.830;9.116;2022-08-04T08:47:18;97605.69;;;37.22;30.83
15489;BME280;7846;48.830;9.116;2022-08-04T08:52:49;97610.34;;;37.75;30.32
15489;BME280;7846;48.830;9.116;2022-08-04T08:55:25;97606.50;;;38.13;29.99
15489;BME280;7846;48.830;9.116;2022-08-04T09:11:12;97606.75;;;38.57;28.32
15489;BME280;7846;48.830;9.116;2022-08-04T09:13:53;97597.19;;;38.67;28.86
15489;BME280;7846;48.830;9.116;2022-08-04T09:16:58;97612.06;;;39.31;28.41
15489;BME280;7846;48.830;9.116;2022-08-04T09:19:31;97615.34;;;39.08;28.75
15489;BME280;7846;48.830;9.116;2022-08-04T09:22:00;97609.84;;;39.64;28.67
15489;BME280;7846;48.830;9.116;2022-08-04T09:25:29;97615.44;;;39.68;28.43
15489;BME280;7846;48.830;9.116;2022-08-04T09:27:52;97613.13;;;39.26;28.38
15489;BME280;7846;48.830;9.116;2022-08-04T09:30:34;97608.19;;;39.32;28.34
15489;BME280;7846;48.830;9.116;2022-08-04T09:33:19;97614.00;;;39.02;28.79
15489;BME280;7846;48.830;9.116;2022-08-04T09:36:06;97602.69;;;38.67;28.80
15489;BME280;7846;48.830;9.116;2022-08-04T09:38:50;97601.69;;;37.98;28.24
15489;BME280;7846;48.830;9.116;2022-08-04T09:52:48;97581.41;;;39.92;27.52
15489;BME280;7846;48.830;9.116;2022-08-04T09:57:54;97584.44;;;40.70;26.86
15489;BME280;7846;48.830;9.116;2022-08-04T10:00:26;97591.31;;;40.95;26.30
15489;BME280;7846;48.830;9.116;2022-08-04T10:02:55;97589.59;;;40.36;26.30
15489;BME280;7846;48.830;9.116;2022-08-04T10:05:38;97585.69;;;39.89;26.38
15489;BME280;7846;48.830;9.116;2022-08-04T10:10:58;97588.38;;;40.69;26.12
15489;BME280;7846;48.830;9.116;2022-08-04T10:14:22;97576.97;;;40.90;26.56
15489;BME280;7846;48.830;9.116;2022-08-04T10:19:27;97576.16;;;40.70;26.48
15489;BME280;7846;48.830;9.116;2022-08-04T10:21:57;97571.81;;;40.88;25.54
15489;BME280;7846;48.830;9.116;2022-08-04T10:24:47;97569.34;;;40.83;25.95
15489;BME280;7846;48.830;9.116;2022-08-04T10:27:45;97567.28;;;41.38;24.49
15489;BME280;7846;48.830;9.116;2022-08-04T10:30:12;97568.81;;;41.55;24.02
15489;BME280;7846;48.830;9.116;2022-08-04T10:33:24;97562.38;;;41.08;24.88
15489;BME280;7846;48.830;9.116;2022-08-04T10:35:51;97567.03;;;41.43;24.65
15489;BME280;7846;48.830;9.116;2022-08-04T10:38:32;97568.81;;;42.01;24.88
15489;BME280;7846;48.830;9.116;2022-08-04T10:41:11;97556.91;;;41.51;24.22
15489;BME280;7846;48.830;9.116;2022-08-04T10:46:18;97556.50;;;39.57;25.73
15489;BME280;7846;48.830;9.116;2022-08-04T10:49:05;97545.59;;;39.04;26.15
15489;BME280;7846;48.830;9.116;2022-08-04T10:51:49;97547.66;;;39.07;26.63
15489;BME280;7846;48.830;9.116;2022-08-04T10:54:26;97547.47;;;40.74;25.15
15489;BME280;7846;48.830;9.116;2022-08-04T10:57:03;97548.47;;;40.85;25.65
15489;BME280;7846;48.830;9.116;2022-08-04T10:59:39;97556.69;;;41.40;25.40
15489;BME280;7846;48.830;9.116;2022-08-04T11:03:29;97558.50;;;41.32;25.17
15489;BME280;7846;48.830;9.116;2022-08-04T11:05:52;97561.19;;;40.71;24.75
15489;BME280;7846;48.830;9.116;2022-08-04T11:08:22;97561.13;;;40.32;25.52
15489;BME280;7846;48.830;9.116;2022-08-04T11:10:56;97560.09;;;41.33;25.28
15489;BME280;7846;48.830;9.116;2022-08-04T11:13:24;97559.16;;;41.45;24.73
15489;BME280;7846;48.830;9.116;2022-08-04T11:15:54;97552.00;;;41.21;24.21
15489;BME280;7846;48.830;9.116;2022-08-04T11:18:25;97552.03;;;40.31;25.04
15489;BME280;7846;48.830;9.116;2022-08-04T11:21:06;97547.16;;;39.61;25.47
15489;BME280;7846;48.830;9.116;2022-08-04T11:23:36;97545.50;;;39.73;25.80
15489;BME280;7846;48.830;9.116;2022-08-04T11:26:10;97548.91;;;38.69;26.03
15489;BME280;7846;48.830;9.116;2022-08-04T11:28:55;97557.03;;;38.90;26.01
15489;BME280;7846;48.830;9.116;2022-08-04T11:31:27;97557.13;;;38.94;25.54
15489;BME280;7846;48.830;9.116;2022-08-04T11:36:35;97559.38;;;40.24;24.89
15489;BME280;7846;48.830;9.116;2022-08-04T11:39:08;97553.69;;;39.69;24.47
15489;BME280;7846;48.830;9.116;2022-08-04T11:41:38;97552.28;;;39.31;25.18
15489;BME280;7846;48.830;9.116;2022-08-04T11:44:08;97559.84;;;39.22;25.01
15489;BME280;7846;48.830;9.116;2022-08-04T11:46:46;97557.16;;;39.38;25.31
15489;BME280;7846;48.830;9.116;2022-08-04T11:49:39;97545.56;;;39.16;25.12
15489;BME280;7846;48.830;9.116;2022-08-04T11:52:07;97551.09;;;38.64;25.74
15489;BME280;7846;48.830;9.116;2022-08-04T11:54:37;97554.16;;;38.74;25.88
15489;BME280;7846;48.830;9.116;2022-08-04T11:57:03;97548.19;;;39.25;25.23
15489;BME280;7846;48.830;9.116;2022-08-04T11:59:32;97549.72;;;40.88;24.17
15489;BME280;7846;48.830;9.116;2022-08-04T12:04:59;97545.69;;;40.47;23.87
15489;BME280;7846;48.830;9.116;2022-08-04T12:10:33;97548.19;;;40.36;24.25
15489;BME280;7846;48.830;9.116;2022-08-04T12:15:58;97546.00;;;40.10;24.17
15489;BME280;7846;48.830;9.116;2022-08-04T12:18:37;97544.66;;;41.75;23.41
15489;BME280;7846;48.830;9.116;2022-08-04T12:21:17;97549.94;;;41.61;23.55
15489;BME280;7846;48.830;9.116;2022-08-04T12:23:48;97543.34;;;41.03;23.63
15489;BME280;7846;48.830;9.116;2022-08-04T12:26:26;97535.81;;;41.66;23.10
15489;BME280;7846;48.830;9.116;2022-08-04T12:28:57;97536.44;;;43.18;22.41
15489;BME280;7846;48.830;9.116;2022-08-04T12:31:30;97544.72;;;43.96;20.72
15489;BME280;7846;48.830;9.116;2022-08-04T12:34:06;97531.28;;;43.99;21.41
15489;BME280;7846;48.830;9.116;2022-08-04T12:36:55;97543.59;;;44.05;21.27
15489;BME280;7846;48.830;9.116;2022-08-04T12:39:25;97537.44;;;45.17;20.00
15489;BME280;7846;48.830;9.116;2022-08-04T12:44:16;97547.81;;;50.13;16.74
15489;BME280;7846;48.830;9.116;2022-08-04T12:46:45;97543.28;;;50.43;16.29
15489;BME280;7846;48.830;9.116;2022-08-04T12:49:11;97534.38;;;48.28;17.52
15489;BME280;7846;48.830;9.116;2022-08-04T12:51:46;97527.84;;;48.42;17.47
15489;BME280;7846;48.830;9.116;2022-08-04T12:54:12;97533.00;;;46.80;18.26
15489;BME280;7846;48.830;9.116;2022-08-04T12:56:46;97523.63;;;45.52;19.76
15489;BME280;7846;48.830;9.116;2022-08-04T12:59:12;97513.19;;;47.44;18.22
15489;BME280;7846;48.830;9.116;2022-08-04T13:01:39;97530.44;;;49.25;17.15
15489;BME280;7846;48.830;9.116;2022-08-04T13:04:15;97519.63;;;47.31;17.87
15489;BME280;7846;48.830;9.116;2022-08-04T13:06:41;97520.22;;;46.90;17.86
15489;BME280;7846;48.830;9.116;2022-08-04T13:09:10;97516.97;;;48.13;18.13
15489;BME280;7846;48.830;9.116;2022-08-04T13:11:40;97520.31;;;46.72;17.93
15489;BME280;7846;48.830;9.116;2022-08-04T13:14:07;97504.19;;;44.40;20.28
15489;BME280;7846;48.830;9.116;2022-08-04T13:16:34;97505.13;;;42.50;21.32
15489;BME280;7846;48.830;9.116;2022-08-04T13:19:00;97503.84;;;44.52;20.25
15489;BME280;7846;48.830;9.116;2022-08-04T13:21:28;97497.47;;;42.14;21.91
15489;BME280;7846;48.830;9.116;2022-08-04T13:24:01;97500.88;;;43.68;20.70
15489;BME280;7846;48.830;9.116;2022-08-04T13:26:28;97494.06;;;44.90;19.66
15489;BME280;7846;48.830;9.116;2022-08-04T13:28:57;97501.38;;;45.74;18.79
15489;BME280;7846;48.830;9.116;2022-08-04T13:31:26;97503.22;;;45.02;19.55
15489;BME280;7846;48.830;9.116;2022-08-04T13:33:54;97485.09;;;45.94;18.97
15489;BME280;7846;48.830;9.116;2022-08-04T13:36:27;97489.84;;;45.79;18.78
15489;BME280;7846;48.830;9.116;2022-08-04T13:38:57;97485.03;;;44.20;20.06
15489;BME280;7846;48.830;9.116;2022-08-04T13:41:23;97484.28;;;45.36;19.66
15489;BME280;7846;48.830;9.116;2022-08-04T13:43:54;97494.94;;;46.41;18.71
15489;BME280;7846;48.830;9.116;2022-08-04T13:46:23;97492.44;;;48.32;17.95
15489;BME280;7846;48.830;9.116;2022-08-04T13:48:50;97495.22;;;51.53;15.08
15489;BME280;7846;48.830;9.116;2022-08-04T13:51:19;97489.28;;;51.68;15.42
15489;BME280;7846;48.830;9.116;2022-08-04T13:53:44;97496.09;;;54.55;14.35
15489;BME280;7846;48.830;9.116;2022-08-04T13:56:20;97488.06;;;54.09;14.02
15489;BME280;7846;48.830;9.116;2022-08-04T13:58:47;97485.13;;;51.89;15.80
15489;BME280;7846;48.830;9.116;2022-08-04T14:01:21;97477.75;;;52.40;14.56
15489;BME280;7846;48.830;9.116;2022-08-04T14:03:56;97478.94;;;49.96;16.11
15489;BME280;7846;48.830;9.116;2022-08-04T14:06:27;97467.16;;;51.86;15.14
15489;BME280;7846;48.830;9.116;2022-08-04T14:08:57;97467.50;;;52.46;14.52
15489;BME280;7846;48.830;9.116;2022-08-04T14:11:39;97471.97;;;50.84;15.57
15489;BME280;7846;48.830;9.116;2022-08-04T14:14:16;97468.19;;;50.15;16.03
15489;BME280;7846;48.830;9.116;2022-08-04T14:17:09;97461.66;;;47.00;17.33
15489;BME280;7846;48.830;9.116;2022-08-04T14:24:58;97447.97;;;46.47;18.45
15489;BME280;7846;48.830;9.116;2022-08-04T14:27:25;97442.00;;;44.62;19.37
15489;BME280;7846;48.830;9.116;2022-08-04T14:29:52;97449.31;;;45.81;18.83
15489;BME280;7846;48.830;9.116;2022-08-04T14:32:18;97454.06;;;45.42;18.68
15489;BME280;7846;48.830;9.116;2022-08-04T14:34:44;97440.06;;;46.20;18.41
15489;BME280;7846;48.830;9.116;2022-08-04T14:37:14;97439.75;;;45.11;19.13
15489;BME280;7846;48.830;9.116;2022-08-04T14:39:45;97450.75;;;46.47;18.54
15489;BME280;7846;48.830;9.116;2022-08-04T14:42:13;97446.03;;;47.14;18.01
15489;BME280;7846;48.830;9.116;2022-08-04T14:45:06;97437.38;;;46.94;18.06
15489;BME280;7846;48.830;9.116;2022-08-04T14:47:57;97446.50;;;46.21;18.57
15489;BME280;7846;48.830;9.116;2022-08-04T14:50:38;97443.66;;;51.47;16.31
15489;BME280;7846;48.830;9.116;2022-08-04T14:53:13;97449.13;;;53.95;14.53
15489;BME280;7846;48.830;9.116;2022-08-04T14:55:41;97445.25;;;54.68;13.93
15489;BME280;7846;48.830;9.116;2022-08-04T14:58:24;97429.22;;;47.77;17.50
15489;BME280;7846;48.830;9.116;2022-08-04T15:00:52;97438.03;;;49.79;16.75
15489;BME280;7846;48.830;9.116;2022-08-04T15:03:19;97428.84;;;48.77;16.53
15489;BME280;7846;48.830;9.116;2022-08-04T15:05:48;97422.47;;;49.54;16.12
15489;BME280;7846;48.830;9.116;2022-08-04T15:08:13;97422.28;;;45.60;18.51
15489;BME280;7846;48.830;9.116;2022-08-04T15:10:40;97417.94;;;46.83;18.21
15489;BME280;7846;48.830;9.116;2022-08-04T15:13:06;97429.72;;;51.11;16.30
15489;BME280;7846;48.830;9.116;2022-08-04T15:15:32;97430.25;;;49.67;15.80
15489;BME280;7846;48.830;9.116;2022-08-04T15:17:58;97424.91;;;48.44;16.58
15489;BME280;7846;48.830;9.116;2022-08-04T15:20:24;97423.03;;;44.97;19.06
15489;BME280;7846;48.830;9.116;2022-08-04T15:22:49;97423.53;;;48.56;17.40
15489;BME280;7846;48.830;9.116;2022-08-04T15:25:16;97418.53;;;47.16;17.81
15489;BME280;7846;48.830;9.116;2022-08-04T15:27:42;97410.56;;;43.71;20.61
15489;BME280;7846;48.830;9.116;2022-08-04T15:30:10;97416.50;;;44.32;20.01
15489;BME280;7846;48.830;9.116;2022-08-04T15:32:57;97414.66;;;46.07;19.39
15489;BME280;7846;48.830;9.116;2022-08-04T15:35:26;97413.16;;;45.13;19.28
15489;BME280;7846;48.830;9.116;2022-08-04T15:45:57;97422.13;;;49.72;16.04
15489;BME280;7846;48.830;9.116;2022-08-04T15:48:25;97416.03;;;48.49;16.56
15489;BME280;7846;48.830;9.116;2022-08-04T15:53:19;97423.44;;;52.56;14.86
15489;BME280;7846;48.830;9.116;2022-08-04T15:55:45;97424.34;;;52.11;14.59
15489;BME280;7846;48.830;9.116;2022-08-04T15:58:12;97418.94;;;49.50;16.15
15489;BME280;7846;48.830;9.116;2022-08-04T16:16:47;97391.28;;;47.38;17.61
15489;BME280;7846;48.830;9.116;2022-08-04T16:19:24;97392.09;;;45.66;18.78
15489;BME280;7846;48.830;9.116;2022-08-04T16:21:57;97387.66;;;46.01;18.58
15489;BME280;7846;48.830;9.116;2022-08-04T16:24:35;97390.13;;;45.56;18.75
15489;BME280;7846;48.830;9.116;2022-08-04T16:27:03;97383.69;;;46.83;18.45
15489;BME280;7846;48.830;9.116;2022-08-04T16:29:31;97387.06;;;47.15;17.58
15489;BME280;7846;48.830;9.116;2022-08-04T16:34:51;97379.78;;;45.60;19.05
15489;BME280;7846;48.830;9.116;2022-08-04T16:37:18;97378.06;;;46.90;18.56
15489;BME280;7846;48.830;9.116;2022-08-04T16:39:45;97376.66;;;47.19;17.76